Time;durP1;ratioP1;P1;durP2;ratioP2;P2;SDS_P1;SDS_P2;PMS_P1;PMS_P2;Temp;Humidity;BMP_temperature;BMP_pressure;BME280_temperature;BME280_humidity;BME280_pressure;Samples;Min_cycle;Max_cycle;Signal;HPM_P1;HPM_P2
2021/01/20 00:02:26;;;;;;;;;0.00;0.00;20.10;59.40;;;18.96;43.23;101369.44;5021728;28;8888;-59
2021/01/20 00:04:53;;;;;;;;;0.00;0.00;20.00;59.30;;;18.97;42.69;101375.66;5022675;28;8784;-58
2021/01/20 00:07:20;;;;;;;;;3.00;2.00;20.00;59.30;;;18.98;43.23;101383.56;5022757;28;8800;-58
2021/01/20 00:09:47;;;;;;;;;0.00;0.00;20.00;58.60;;;19.00;43.13;101372.69;5025012;28;9556;-59
2021/01/20 00:12:13;;;;;;;;;0.00;0.00;19.80;58.70;;;19.02;41.92;101378.75;5029796;28;8792;-59
2021/01/20 00:14:40;;;;;;;;;0.25;0.00;20.00;57.90;;;19.03;42.21;101375.94;5025413;28;8795;-59
2021/01/20 00:17:07;;;;;;;;;0.50;0.00;20.00;57.90;;;19.04;43.18;101388.31;5016899;28;8789;-53
2021/01/20 00:19:34;;;;;;;;;0.00;0.00;20.00;58.80;;;19.07;42.71;101389.88;5024161;28;8853;-57
2021/01/20 00:22:02;;;;;;;;;0.00;0.00;20.00;58.60;;;19.12;42.84;101394.81;5023225;28;8828;-56
2021/01/20 00:24:29;;;;;;;;;0.00;0.00;20.00;58.70;;;19.11;43.06;101407.38;5023329;28;8812;-54
2021/01/20 00:26:55;;;;;;;;;1.00;0.00;20.00;58.90;;;19.16;43.05;101412.28;5022716;28;8890;-57
2021/01/20 00:29:22;;;;;;;;;1.50;1.00;20.00;59.10;;;19.16;42.94;101412.28;5017416;28;8841;-58
2021/01/20 00:31:49;;;;;;;;;0.75;0.75;20.20;59.10;;;19.15;43.05;101422.13;5025144;28;8806;-56
2021/01/20 00:34:16;;;;;;;;;2.50;0.00;20.00;59.30;;;19.17;43.52;101422.00;5026030;28;8837;-56
2021/01/20 00:36:43;;;;;;;;;0.00;0.00;20.10;59.50;;;19.19;43.40;101428.91;5025384;28;8790;-58
2021/01/20 00:39:09;;;;;;;;;0.50;0.50;20.00;59.40;;;19.22;43.71;101428.63;5029459;28;8813;-58
2021/01/20 00:41:36;;;;;;;;;1.00;1.00;20.10;59.50;;;19.22;43.39;101427.78;5030044;28;8823;-58
2021/01/20 00:44:04;;;;;;;;;2.00;1.00;20.10;59.50;;;19.23;43.43;101424.09;5027532;28;8861;-60
2021/01/20 00:46:31;;;;;;;;;0.50;0.00;20.10;59.50;;;19.26;43.55;101424.69;5022470;28;8916;-59
2021/01/20 00:48:58;;;;;;;;;0.00;0.00;20.20;59.50;;;19.26;43.72;101413.13;5026819;28;8798;-59
2021/01/20 00:51:25;;;;;;;;;1.75;1.50;20.10;59.60;;;19.27;43.75;101415.66;5027239;28;8876;-59
2021/01/20 00:53:52;;;;;;;;;1.00;0.75;20.10;59.50;;;19.27;43.40;101421.00;5024800;28;8864;-59
2021/01/20 00:56:18;;;;;;;;;0.00;0.00;20.10;59.50;;;19.29;43.53;101419.03;5026055;28;8779;-59
2021/01/20 00:58:45;;;;;;;;;0.00;0.00;20.10;59.50;;;19.30;43.51;101418.03;5031142;28;8814;-59
2021/01/20 01:01:12;;;;;;;;;0.75;0.50;20.10;59.60;;;19.33;43.78;101424.09;5008161;28;8832;-58
2021/01/20 01:03:39;;;;;;;;;0.00;0.00;20.10;59.60;;;19.33;43.59;101430.31;5009542;28;8808;-58
2021/01/20 01:06:06;;;;;;;;;0.00;0.00;20.20;59.70;;;19.34;43.35;101440.06;5022010;28;8941;-59
2021/01/20 01:08:33;;;;;;;;;0.75;0.00;20.20;59.60;;;19.35;43.77;101444.41;5025302;28;8849;-60
2021/01/20 01:11:03;;;;;;;;;0.50;0.50;20.20;59.70;;;19.37;43.63;101450.47;5028654;28;8810;-59
2021/01/20 01:13:30;;;;;;;;;0.00;0.00;20.20;59.80;;;19.39;43.84;101461.06;5014249;28;8816;-58
2021/01/20 01:15:58;;;;;;;;;0.00;0.00;20.20;59.50;;;19.42;43.70;101460.78;5024446;28;8814;-59
2021/01/20 01:18:25;;;;;;;;;1.50;1.00;20.10;59.70;;;19.41;43.42;101451.91;5024140;28;8821;-58
2021/01/20 01:20:51;;;;;;;;;0.00;0.00;20.30;59.80;;;19.42;43.54;101445.53;5025707;28;8832;-59
2021/01/20 01:23:20;;;;;;;;;1.50;1.00;20.20;59.30;;;19.41;43.83;101433.13;5008062;28;8817;-59
2021/01/20 01:25:47;;;;;;;;;0.25;0.25;20.20;59.70;;;19.44;43.91;101432.00;5032192;28;8779;-59
2021/01/20 01:28:15;;;;;;;;;0.00;0.00;20.40;60.00;;;19.44;43.49;101432.84;5025243;28;8772;-59
2021/01/20 01:30:42;;;;;;;;;1.00;0.50;20.10;59.70;;;19.44;43.86;101429.34;5011386;28;8989;-58
2021/01/20 01:33:10;;;;;;;;;1.00;0.00;20.20;59.80;;;19.47;43.56;101437.06;5022777;28;8798;-58
2021/01/20 01:35:37;;;;;;;;;0.00;0.00;20.10;59.80;;;19.48;43.60;101444.13;5027576;28;8782;-57
2021/01/20 01:38:03;;;;;;;;;0.00;0.00;20.20;60.10;;;19.47;43.57;101437.91;5027506;28;8806;-58
2021/01/20 01:40:31;;;;;;;;;0.25;0.25;20.20;59.90;;;19.48;43.39;101454.84;5026445;28;8906;-59
2021/01/20 01:42:57;;;;;;;;;0.50;0.00;20.10;59.60;;;19.49;43.44;101464.59;5023114;28;8864;-59
2021/01/20 01:45:24;;;;;;;;;0.20;0.00;20.30;59.70;;;19.52;43.42;101470.50;5012644;28;8837;-58
2021/01/20 01:47:52;;;;;;;;;0.80;0.00;20.30;59.70;;;19.51;43.45;101467.94;5022354;28;8816;-59
2021/01/20 01:50:19;;;;;;;;;0.00;0.00;20.30;59.80;;;19.51;43.71;101451.84;5011784;28;8845;-59
2021/01/20 01:52:45;;;;;;;;;0.00;0.00;20.50;60.00;;;19.53;43.75;101442.69;5026668;28;8896;-59
2021/01/20 01:55:12;;;;;;;;;0.00;0.00;20.30;60.00;;;19.55;42.84;101444.41;5026440;28;8812;-58
2021/01/20 01:57:41;;;;;;;;;1.00;0.00;20.40;59.30;;;19.55;43.54;101445.22;5022925;28;8793;-58
2021/01/20 02:00:10;;;;;;;;;0.60;0.00;20.30;60.10;;;19.60;42.94;101434.94;5015449;28;8791;-58
2021/01/20 02:02:38;;;;;;;;;0.00;0.00;20.50;59.60;;;19.67;43.01;101437.91;5028103;28;8933;-58
2021/01/20 02:05:06;;;;;;;;;0.00;0.00;20.60;59.10;;;19.73;43.01;101432.81;5025724;28;8911;-58
2021/01/20 02:07:35;;;;;;;;;0.00;0.00;20.80;58.80;;;19.83;42.77;101442.66;5027307;28;8824;-58
2021/01/20 02:10:05;;;;;;;;;0.00;0.00;21.00;58.40;;;19.89;42.66;101458.16;5013864;28;8820;-59
2021/01/20 02:13:03;;;;;;;;;0.00;0.00;21.30;58.20;;;20.00;42.41;101470.53;5023491;28;8818;-57
2021/01/20 02:15:55;;;;;;;;;0.00;0.00;21.30;57.90;;;20.04;42.69;101472.78;5013371;28;8781;-58
2021/01/20 02:18:30;;;;;;;;;0.00;0.00;21.50;57.70;;;20.06;42.23;101473.50;5011801;28;8832;-58
2021/01/20 02:21:10;;;;;;;;;0.00;0.00;21.40;57.50;;;20.08;42.45;101492.13;4991784;28;8846;-58
2021/01/20 02:23:43;;;;;;;;;0.00;0.00;21.20;58.10;;;20.06;42.78;101494.94;5024648;28;8785;-58
2021/01/20 02:26:30;;;;;;;;;0.00;0.00;21.10;58.40;;;20.06;42.37;101491.44;5006171;28;8837;-58
2021/01/20 02:29:21;;;;;;;;;0.00;0.00;21.00;58.10;;;20.06;42.52;101492.28;5013294;28;8813;-58
2021/01/20 02:31:49;;;;;;;;;0.00;0.00;21.10;58.60;;;20.09;43.06;101494.66;5026217;28;8817;-59
2021/01/20 02:34:20;;;;;;;;;0.60;0.60;21.10;59.20;;;20.12;43.01;101486.34;5006111;28;8917;-58
2021/01/20 02:36:52;;;;;;;;;0.00;0.00;21.20;59.10;;;20.14;42.85;101484.34;5013471;28;8802;-50
2021/01/20 02:39:20;;;;;;;;;0.00;0.00;21.30;58.90;;;20.15;43.05;101491.41;5025076;28;8787;-52
2021/01/20 02:41:47;;;;;;;;;0.00;0.00;21.10;59.20;;;20.14;42.92;101491.53;5016325;28;8851;-54
2021/01/20 02:44:14;;;;;;;;;0.00;0.00;21.00;59.30;;;20.12;42.92;101499.75;5022219;28;8836;-53
2021/01/20 02:46:42;;;;;;;;;0.00;0.00;21.00;59.50;;;20.11;42.82;101500.72;5030821;28;8793;-54
2021/01/20 02:49:09;;;;;;;;;0.00;0.00;21.00;59.20;;;20.16;42.74;101495.78;5023360;28;8806;-54
2021/01/20 02:52:15;;;;;;;;;0.00;0.00;21.10;59.40;;;20.21;42.67;101503.38;5023001;28;8931;-51
2021/01/20 02:54:44;;;;;;;;;0.00;0.00;21.30;59.10;;;20.22;42.87;101510.44;5013488;28;8813;-53
2021/01/20 02:57:12;;;;;;;;;0.00;0.00;21.10;59.10;;;20.20;42.76;101515.13;5024021;28;8779;-52
2021/01/20 02:59:41;;;;;;;;;0.00;0.00;21.10;59.20;;;20.17;42.58;101510.88;5008609;28;8889;-54
2021/01/20 03:02:12;;;;;;;;;0.00;0.00;21.00;59.10;;;20.16;42.47;101509.19;5009877;28;8812;-54
2021/01/20 03:04:45;;;;;;;;;0.00;0.00;21.00;58.80;;;20.15;42.19;101498.63;5007328;28;9502;-53
2021/01/20 03:07:13;;;;;;;;;0.00;0.00;21.00;58.80;;;20.16;42.44;101502.97;5017130;28;8878;-55
2021/01/20 03:09:40;;;;;;;;;0.00;0.00;21.00;59.20;;;20.13;42.44;101493.38;5006319;28;8881;-54
2021/01/20 03:12:08;;;;;;;;;0.00;0.00;21.10;59.30;;;20.13;42.49;101493.38;5025229;28;9775;-55
2021/01/20 03:14:37;;;;;;;;;0.00;0.00;21.00;59.30;;;20.12;42.45;101490.84;5016971;28;8802;-52
2021/01/20 03:17:04;;;;;;;;;0.00;0.00;20.90;59.60;;;20.11;42.44;101502.56;5027616;28;8796;-52
2021/01/20 03:19:31;;;;;;;;;0.00;0.00;20.90;59.40;;;20.11;42.58;101515.97;5019109;28;8858;-55
2021/01/20 03:21:57;;;;;;;;;0.00;0.00;20.90;59.40;;;20.09;42.62;101518.78;5020888;28;8958;-54
2021/01/20 03:24:24;;;;;;;;;0.00;0.00;20.80;59.40;;;20.10;42.63;101525.03;5024457;28;8794;-51
2021/01/20 03:26:51;;;;;;;;;0.00;0.00;20.70;59.20;;;20.08;42.86;101529.69;5026558;28;8808;-54
2021/01/20 03:29:18;;;;;;;;;0.00;0.00;20.90;59.40;;;20.08;42.84;101530.53;5026495;28;8887;-53
2021/01/20 03:31:45;;;;;;;;;0.00;0.00;21.00;59.60;;;20.08;42.96;101529.69;5025924;28;8799;-55
2021/01/20 03:34:12;;;;;;;;;0.00;0.00;20.80;59.40;;;20.07;43.14;101522.63;5016997;28;8790;-53
2021/01/20 03:36:38;;;;;;;;;0.00;0.00;20.80;59.60;;;20.10;43.35;101536.59;5021510;28;8798;-52
2021/01/20 03:39:05;;;;;;;;;0.00;0.00;20.90;59.80;;;20.06;43.66;101535.19;5019847;28;8822;-53
2021/01/20 03:41:32;;;;;;;;;0.60;0.20;20.80;60.00;;;20.07;43.91;101530.66;5022747;28;8806;-54
2021/01/20 03:43:59;;;;;;;;;0.00;0.00;20.80;60.40;;;20.06;44.19;101540.56;5020425;28;9467;-53
2021/01/20 03:46:26;;;;;;;;;0.00;0.00;20.80;60.70;;;20.07;44.35;101538.72;5023453;28;8774;-52
2021/01/20 03:48:53;;;;;;;;;0.80;0.00;20.80;60.80;;;20.06;44.69;101539.72;5020905;28;8822;-55
2021/01/20 03:51:20;;;;;;;;;0.80;0.80;20.80;61.30;;;20.05;45.04;101554.97;5014274;28;8861;-54
2021/01/20 03:53:47;;;;;;;;;0.80;0.80;20.80;61.70;;;20.04;45.41;101547.88;5024143;28;8786;-54
2021/01/20 03:56:13;;;;;;;;;0.20;0.20;20.80;61.40;;;20.03;45.65;101545.38;5023323;28;8837;-51
2021/01/20 03:58:40;;;;;;;;;0.00;0.00;20.70;61.50;;;20.01;45.72;101536.63;5024948;28;8766;-55
2021/01/20 04:01:07;;;;;;;;;0.00;0.00;20.90;62.00;;;20.02;45.42;101533.78;5024290;28;8927;-52
2021/01/20 04:03:34;;;;;;;;;0.00;0.00;20.70;62.20;;;20.02;45.74;101543.66;5022159;28;8773;-55
2021/01/20 04:06:00;;;;;;;;;0.80;0.80;20.90;62.50;;;20.01;45.67;101548.19;5021805;28;8789;-54
2021/01/20 04:08:27;;;;;;;;;2.20;1.00;20.50;62.20;;;20.00;45.67;101551.88;5029175;28;8836;-55
2021/01/20 04:10:54;;;;;;;;;1.00;1.00;20.70;61.80;;;19.99;46.21;101552.84;5023178;28;8790;-54
2021/01/20 04:13:25;;;;;;;;;1.00;1.00;20.60;62.40;;;19.99;46.08;101554.69;5022914;28;8809;-53
2021/01/20 04:15:52;;;;;;;;;1.00;1.00;20.70;62.70;;;19.99;45.79;101560.88;5024840;28;8774;-55
2021/01/20 04:18:19;;;;;;;;;2.25;2.00;20.70;62.40;;;20.00;46.17;101553.69;5018323;28;8868;-54
2021/01/20 04:20:47;;;;;;;;;3.50;3.00;20.80;63.00;;;19.99;45.88;101571.63;5027139;28;9610;-52
2021/01/20 04:23:14;;;;;;;;;1.75;1.00;20.40;62.80;;;20.00;46.04;101580.50;5023347;28;8793;-54
2021/01/20 04:25:40;;;;;;;;;3.00;3.00;20.70;62.90;;;20.00;45.88;101586.72;5022309;28;8798;-55
2021/01/20 04:28:07;;;;;;;;;3.50;3.00;20.40;62.80;;;20.00;45.99;101589.41;5012365;28;9609;-54
2021/01/20 04:30:34;;;;;;;;;2.00;2.00;20.60;62.80;;;19.98;46.18;101580.66;5017926;28;8820;-54
2021/01/20 04:33:01;;;;;;;;;2.00;2.00;20.80;63.10;;;20.00;46.03;101580.50;5021743;28;8828;-56
2021/01/20 04:35:27;;;;;;;;;1.00;1.00;20.70;63.10;;;19.98;45.92;101583.34;5021402;28;8811;-61
2021/01/20 04:37:54;;;;;;;;;1.75;1.50;20.50;62.90;;;20.01;46.09;101590.25;5020698;28;8850;-60
2021/01/20 04:40:21;;;;;;;;;2.00;2.00;20.60;62.60;;;19.98;46.29;101594.06;5034421;28;8914;-60
2021/01/20 04:42:48;;;;;;;;;2.75;2.50;20.70;62.50;;;19.99;46.27;101601.13;5022003;28;8817;-60
2021/01/20 04:45:15;;;;;;;;;2.00;1.00;20.90;62.50;;;19.99;46.31;101601.13;5024540;28;8802;-60
2021/01/20 04:47:43;;;;;;;;;1.00;1.00;20.80;62.60;;;19.99;46.41;101603.78;5032346;28;8821;-60
2021/01/20 04:50:14;;;;;;;;;2.50;2.00;20.60;62.20;;;19.98;46.10;101603.97;5014139;28;8781;-60
2021/01/20 04:52:46;;;;;;;;;2.00;1.00;20.50;62.20;;;19.98;46.15;101603.97;5016602;28;8794;-60
2021/01/20 04:55:15;;;;;;;;;2.00;2.00;21.00;62.20;;;19.97;46.19;101607.63;5016393;28;8774;-60
2021/01/20 04:57:42;;;;;;;;;3.00;2.00;20.80;62.00;;;19.98;46.16;101617.38;5015026;28;9487;-59
2021/01/20 05:00:10;;;;;;;;;1.00;1.00;20.60;61.90;;;19.98;46.05;101617.38;5025484;28;8786;-59
2021/01/20 05:02:38;;;;;;;;;1.00;0.75;20.80;62.10;;;19.99;45.83;101619.88;5014859;28;8798;-59
2021/01/20 05:05:05;;;;;;;;;2.00;2.00;20.60;62.10;;;19.98;45.95;101631.63;5011232;28;8792;-60
2021/01/20 05:07:32;;;;;;;;;2.00;1.75;20.80;62.20;;;19.99;46.07;101627.94;5023829;28;8838;-59
2021/01/20 05:09:59;;;;;;;;;2.75;2.00;20.80;61.70;;;19.98;45.89;101631.63;5026626;28;8848;-59
2021/01/20 05:12:43;;;;;;;;;3.00;2.00;21.00;62.10;;;20.02;44.94;101633.00;5027611;28;8866;-60
2021/01/20 05:15:15;;;;;;;;;1.50;1.50;20.50;61.50;;;20.04;44.97;101627.50;5031329;28;8792;-60
2021/01/20 05:18:04;;;;;;;;;1.00;1.00;20.80;62.50;;;20.07;45.22;101632.59;5010349;28;8759;-60
2021/01/20 05:20:36;;;;;;;;;1.25;1.00;20.60;61.40;;;20.07;45.15;101641.47;5028232;28;8800;-54
2021/01/20 05:23:06;;;;;;;;;0.00;0.00;21.00;61.60;;;20.05;44.74;101646.16;5013581;28;8810;-53
2021/01/20 05:25:39;;;;;;;;;1.25;1.25;20.90;61.50;;;20.05;44.81;101658.69;5013605;28;9550;-55
2021/01/20 05:28:27;;;;;;;;;1.00;1.00;20.80;61.10;;;20.03;44.67;101653.50;5026160;28;8842;-55
2021/01/20 05:30:56;;;;;;;;;1.00;0.50;20.70;61.10;;;20.02;44.72;101653.63;5031070;28;9557;-53
2021/01/20 05:33:28;;;;;;;;;3.00;2.00;20.70;61.10;;;20.01;44.75;101646.56;5025222;28;9581;-60
2021/01/20 05:36:15;;;;;;;;;2.00;2.00;20.60;61.10;;;20.00;44.66;101648.41;5024280;28;8825;-53
2021/01/20 05:38:48;;;;;;;;;1.00;0.00;20.70;61.60;;;20.01;44.58;101650.09;5019360;28;8817;-52
2021/01/20 05:41:23;;;;;;;;;1.00;0.50;20.80;61.70;;;19.98;44.51;101650.41;5028215;28;8828;-55
2021/01/20 05:44:07;;;;;;;;;2.00;2.00;20.70;61.30;;;19.98;44.74;101661.13;5022086;28;8792;-54
2021/01/20 05:46:37;;;;;;;;;1.00;1.00;20.90;61.20;;;19.99;44.00;101660.13;5024024;28;8849;-51
2021/01/20 05:49:06;;;;;;;;;0.50;0.50;20.50;61.60;;;20.03;43.75;101653.50;5032309;28;8804;-54
2021/01/20 05:51:45;;;;;;;;;1.00;1.00;20.90;60.40;;;20.05;43.94;101640.78;5011056;28;8832;-55
2021/01/20 05:54:13;;;;;;;;;1.00;1.00;20.80;60.10;;;20.05;43.78;101647.97;5023280;28;8832;-54
2021/01/20 05:56:40;;;;;;;;;0.00;0.00;20.90;60.90;;;20.04;43.65;101657.00;5021824;28;8903;-56
2021/01/20 05:59:10;;;;;;;;;1.00;1.00;20.70;60.60;;;20.01;43.58;101652.78;5031497;28;8891;-53
2021/01/20 06:01:40;;;;;;;;;0.80;0.80;20.80;60.40;;;20.00;43.50;101672.56;5030711;28;8833;-52
2021/01/20 06:04:07;;;;;;;;;0.00;0.00;20.70;60.50;;;19.98;43.65;101663.81;5030602;28;8883;-55
2021/01/20 06:06:36;;;;;;;;;0.00;0.00;20.70;60.50;;;19.95;43.76;101666.78;5012403;28;8888;-53
2021/01/20 06:09:03;;;;;;;;;0.75;0.75;20.70;60.20;;;19.94;43.97;101659.69;5014928;28;8793;-55
2021/01/20 06:11:30;;;;;;;;;1.00;1.00;20.90;60.50;;;19.94;43.94;101648.97;5022713;28;8887;-53
2021/01/20 06:13:57;;;;;;;;;0.50;0.50;20.90;60.90;;;19.92;43.92;101650.94;5028692;28;8806;-56
2021/01/20 06:16:28;;;;;;;;;0.60;0.00;20.80;60.70;;;19.92;44.13;101656.31;5015341;28;8817;-53
2021/01/20 06:19:10;;;;;;;;;0.00;0.00;20.80;60.60;;;19.88;44.15;101649.53;5027256;28;8852;-52
2021/01/20 06:21:40;;;;;;;;;1.75;1.00;20.80;60.40;;;19.88;44.16;101658.44;5015220;28;8817;-54
2021/01/20 06:24:37;;;;;;;;;1.00;1.00;20.70;60.70;;;19.87;44.35;101662.13;5023402;28;8806;-56
2021/01/20 06:27:36;;;;;;;;;0.00;0.00;20.70;60.70;;;19.87;44.23;101658.56;5007709;28;8812;-55
2021/01/20 06:30:42;;;;;;;;;0.60;0.00;20.80;60.80;;;19.83;44.33;101659.84;5021014;28;8826;-54
2021/01/20 06:33:18;;;;;;;;;0.00;0.00;20.80;61.30;;;19.83;44.24;101665.22;5019384;28;9517;-55
2021/01/20 06:35:51;;;;;;;;;0.00;0.00;20.60;60.70;;;19.83;44.32;101662.53;5012686;28;8786;-52
2021/01/20 06:38:30;;;;;;;;;0.00;0.00;20.70;60.70;;;19.82;44.30;101668.84;5025907;28;8953;-55
2021/01/20 06:41:02;;;;;;;;;1.00;1.00;20.60;60.70;;;19.79;44.23;101661.09;5022373;28;8922;-53
2021/01/20 06:43:41;;;;;;;;;0.00;0.00;20.70;60.60;;;19.80;44.17;101660.13;5024722;28;8822;-60
2021/01/20 06:46:27;;;;;;;;;0.50;0.50;20.60;60.70;;;19.82;44.24;101658.13;5010225;28;8783;-58
2021/01/20 06:48:57;;;;;;;;;1.00;1.00;20.60;60.80;;;19.83;44.37;101657.16;5028877;28;8890;-60
2021/01/20 06:51:30;;;;;;;;;0.00;0.00;20.60;60.70;;;19.83;44.45;101668.72;5020959;28;8844;-60
2021/01/20 06:54:06;;;;;;;;;0.00;0.00;20.60;60.60;;;19.82;44.18;101667.06;5024425;28;8805;-60
2021/01/20 06:56:55;;;;;;;;;0.00;0.00;20.50;60.50;;;19.84;44.08;101666.88;5022064;28;8890;-55
2021/01/20 06:59:32;;;;;;;;;1.00;1.00;20.60;60.80;;;19.84;43.94;101653.47;5024454;28;9514;-51
2021/01/20 07:02:05;;;;;;;;;1.00;0.75;20.50;60.60;;;19.81;43.70;101648.41;5022240;28;8867;-54
2021/01/20 07:04:43;;;;;;;;;0.50;0.50;20.40;60.80;;;19.82;44.34;101655.44;5009051;28;8792;-58
2021/01/20 07:07:14;;;;;;;;;0.00;0.00;20.50;61.30;;;19.83;44.50;101655.31;5026835;28;8785;-60
2021/01/20 07:09:50;;;;;;;;;0.00;0.00;20.40;61.20;;;19.85;44.65;101657.88;5023699;28;8798;-60
2021/01/20 07:12:26;;;;;;;;;0.00;0.00;20.50;61.20;;;19.83;44.87;101657.16;5024593;28;8837;-60
2021/01/20 07:14:54;;;;;;;;;0.75;0.75;20.50;61.20;;;19.83;44.86;101654.47;5020458;28;8916;-60
2021/01/20 07:17:22;;;;;;;;;1.00;0.00;20.60;61.00;;;19.86;44.36;101660.41;5022569;28;8790;-60
2021/01/20 07:19:51;;;;;;;;;1.75;1.00;20.70;61.20;;;19.86;44.36;101664.91;5024511;28;8835;-60
2021/01/20 07:22:18;;;;;;;;;0.60;0.60;20.80;61.20;;;19.85;44.49;101672.13;5032612;28;8859;-61
2021/01/20 07:24:45;;;;;;;;;0.80;0.80;20.60;61.20;;;19.85;44.15;101672.13;5026503;28;8786;-59
2021/01/20 07:27:14;;;;;;;;;0.25;0.25;20.50;61.50;;;19.85;44.44;101672.13;5012831;28;8821;-60
2021/01/20 07:29:41;;;;;;;;;0.20;0.20;20.50;61.00;;;19.83;44.85;101668.72;5023652;28;8842;-52
2021/01/20 07:32:08;;;;;;;;;2.60;1.00;20.30;61.30;;;19.81;44.51;101675.22;5026210;28;8806;-50
2021/01/20 07:34:40;;;;;;;;;2.00;1.40;20.60;61.20;;;19.80;44.41;101677.06;5017359;28;8792;-59
2021/01/20 07:37:37;;;;;;;;;0.00;0.00;20.60;60.80;;;19.79;44.22;101669.16;5025004;28;8813;-60
2021/01/20 07:40:10;;;;;;;;;0.00;0.00;20.50;60.60;;;19.79;44.01;101666.47;5007681;28;8794;-58
2021/01/20 07:42:41;;;;;;;;;1.00;0.00;20.40;60.80;;;19.78;43.98;101660.25;5001036;28;8864;-49
2021/01/20 07:45:09;;;;;;;;;1.50;1.25;20.40;60.50;;;19.82;44.59;101660.81;5001287;28;8803;-53
2021/01/20 07:47:48;;;;;;;;;0.00;0.00;20.40;61.60;;;19.84;44.64;101654.31;5010823;28;8799;-55
2021/01/20 07:50:19;;;;;;;;;0.40;0.40;20.70;61.00;;;19.85;44.79;101655.19;5006859;28;8812;-52
2021/01/20 07:52:46;;;;;;;;;1.40;1.40;20.50;61.00;;;19.86;44.44;101657.72;4994698;28;9645;-52
2021/01/20 07:55:17;;;;;;;;;0.00;0.00;20.50;60.70;;;19.88;44.45;101662.94;5000831;28;8774;-49
2021/01/20 07:57:44;;;;;;;;;2.60;1.80;20.70;60.70;;;19.87;44.44;101672.84;5003832;28;8798;-54
2021/01/20 08:00:11;;;;;;;;;0.75;0.75;20.70;60.90;;;19.88;44.37;101668.31;5004935;28;8879;-51
2021/01/20 08:02:48;;;;;;;;;0.00;0.00;20.50;60.40;;;19.87;44.29;101658.56;5006494;28;9537;-55
2021/01/20 08:05:15;;;;;;;;;1.80;0.40;20.60;60.70;;;19.86;44.43;101651.50;5010008;28;8798;-55
2021/01/20 08:07:42;;;;;;;;;0.00;0.00;20.50;60.90;;;19.83;44.78;101651.81;5009876;28;8778;-53
2021/01/20 08:10:21;;;;;;;;;1.00;0.00;20.80;61.20;;;19.81;44.72;101659.13;5003268;28;8824;-54
2021/01/20 08:12:52;;;;;;;;;1.00;0.50;20.70;61.10;;;19.79;44.50;101679.88;5014920;28;8829;-52
2021/01/20 08:15:20;;;;;;;;;0.40;0.00;20.80;61.10;;;19.75;44.81;101682.00;5022743;28;8810;-52
2021/01/20 08:17:47;;;;;;;;;0.00;0.00;20.60;60.80;;;19.77;44.83;101692.56;4998174;28;8798;-53
2021/01/20 08:20:14;;;;;;;;;1.00;0.80;20.50;60.90;;;19.72;45.04;101675.06;5025878;28;8829;-53
2021/01/20 08:22:46;;;;;;;;;0.40;0.40;20.60;61.00;;;19.69;45.16;101670.00;5014732;28;10679;-53
2021/01/20 08:25:20;;;;;;;;;0.00;0.00;20.60;61.10;;;19.68;45.25;101675.50;5015116;28;8878;-54
2021/01/20 08:27:48;;;;;;;;;0.00;0.00;20.40;60.80;;;19.67;45.24;101700.63;5018690;28;8848;-54
2021/01/20 08:30:35;;;;;;;;;1.50;0.00;20.50;61.30;;;19.64;45.30;101706.19;4974855;28;1399179;-54
2021/01/20 08:33:03;;;;;;;;;0.00;0.00;20.50;61.30;;;19.62;45.40;101706.34;5016829;28;9532;-52
2021/01/20 08:35:37;;;;;;;;;0.00;0.00;20.50;61.20;;;19.60;45.49;101708.31;5024005;28;8800;-51
2021/01/20 08:38:06;;;;;;;;;0.00;0.00;20.50;61.40;;;19.58;45.42;101691.50;5026755;28;8819;-51
2021/01/20 08:40:33;;;;;;;;;0.00;0.00;20.50;61.00;;;19.57;45.40;101700.56;5022916;28;8800;-52
2021/01/20 08:43:00;;;;;;;;;2.40;0.40;20.40;61.30;;;19.56;45.64;101708.72;5030234;28;8790;-51
2021/01/20 08:45:32;;;;;;;;;0.20;0.20;20.50;61.20;;;19.53;45.67;101705.31;5032364;28;8783;-55
2021/01/20 08:48:07;;;;;;;;;0.50;0.00;20.40;61.70;;;19.50;45.59;101694.88;5023067;28;8808;-49
2021/01/20 08:50:38;;;;;;;;;1.00;1.00;20.40;61.30;;;19.51;45.62;101690.38;5025500;28;8790;-54
2021/01/20 08:53:11;;;;;;;;;1.00;0.00;20.30;61.00;;;19.48;45.88;101691.50;5027253;28;8807;-53
2021/01/20 08:55:50;;;;;;;;;0.75;0.25;20.30;61.20;;;19.45;45.88;101696.28;5031666;28;8978;-54
2021/01/20 08:58:34;;;;;;;;;0.00;0.00;20.30;61.10;;;19.44;45.83;101686.56;5018087;28;8834;-52
2021/01/20 09:01:03;;;;;;;;;0.00;0.00;20.30;61.70;;;19.41;46.00;101685.00;5021438;28;8817;-51
2021/01/20 09:03:32;;;;;;;;;0.40;0.40;20.30;61.40;;;19.42;45.93;101699.25;5026113;28;8775;-53
2021/01/20 09:06:01;;;;;;;;;0.00;0.00;20.30;61.20;;;19.39;46.04;101694.16;5029938;28;8903;-53
2021/01/20 09:08:30;;;;;;;;;0.00;0.00;20.30;61.20;;;19.38;45.80;101700.50;5028176;28;8865;-53
2021/01/20 09:11:01;;;;;;;;;0.00;0.00;20.30;61.70;;;19.37;45.75;101691.63;5023942;28;8809;-53
2021/01/20 09:13:28;;;;;;;;;0.00;0.00;20.40;61.20;;;19.33;45.87;101692.84;5017301;28;8803;-52
2021/01/20 09:15:56;;;;;;;;;0.00;0.00;20.30;61.70;;;19.35;46.12;101700.78;5024240;28;8837;-51
2021/01/20 09:18:27;;;;;;;;;0.00;0.00;20.30;61.60;;;19.30;46.00;101707.38;5017152;28;9543;-54
2021/01/20 09:20:54;;;;;;;;;1.20;0.00;20.30;61.60;;;19.30;46.17;101706.53;5020204;28;9480;-52
2021/01/20 09:23:22;;;;;;;;;0.00;0.00;20.20;61.30;;;19.28;46.12;101692.41;5030494;28;8836;-54
2021/01/20 09:25:49;;;;;;;;;1.00;1.00;20.20;61.40;;;19.28;46.12;101698.66;5026412;28;8810;-54
2021/01/20 09:28:16;;;;;;;;;0.00;0.00;20.20;61.90;;;19.27;46.10;101699.63;5026342;28;8838;-53
2021/01/20 09:30:43;;;;;;;;;0.00;0.00;20.20;61.20;;;19.24;46.08;101702.56;5022239;28;8816;-53
2021/01/20 09:33:10;;;;;;;;;0.00;0.00;20.20;61.40;;;19.23;46.22;101706.25;5033563;28;8778;-54
2021/01/20 09:35:37;;;;;;;;;0.00;0.00;20.20;61.70;;;19.22;46.07;101701.00;5023897;28;8794;-54
2021/01/20 09:38:05;;;;;;;;;0.00;0.00;20.00;61.70;;;19.20;46.33;101697.59;5027942;28;8784;-54
2021/01/20 09:40:33;;;;;;;;;0.00;0.00;20.20;61.60;;;19.20;46.45;101695.78;5021095;28;8805;-54
2021/01/20 09:43:00;;;;;;;;;0.00;0.00;20.10;61.40;;;19.18;46.42;101711.13;5018395;28;8796;-53
2021/01/20 09:45:29;;;;;;;;;0.00;0.00;20.10;61.90;;;19.16;46.41;101717.59;5031765;28;8775;-54
2021/01/20 09:48:02;;;;;;;;;0.00;0.00;20.10;62.20;;;19.15;46.27;101716.75;5023358;28;9496;-49
2021/01/20 09:50:33;;;;;;;;;0.00;0.00;20.00;61.50;;;19.13;46.44;101710.69;5030789;28;8804;-49
2021/01/20 09:53:02;;;;;;;;;0.00;0.00;19.90;62.00;;;19.12;46.51;101711.69;5020576;28;8780;-55
2021/01/20 09:55:30;;;;;;;;;0.00;0.00;20.00;62.20;;;19.12;46.47;101716.19;5024603;28;8789;-53
2021/01/20 09:58:02;;;;;;;;;0.00;0.00;20.10;62.00;;;19.08;46.69;101705.75;5026377;28;8793;-52
2021/01/20 10:00:29;;;;;;;;;0.00;0.00;20.10;61.90;;;19.07;46.60;101704.03;5023636;28;8810;-54
2021/01/20 10:02:56;;;;;;;;;0.00;0.00;20.00;61.90;;;19.06;46.57;101698.84;5029415;28;8790;-51
2021/01/20 10:05:23;;;;;;;;;0.00;0.00;20.20;62.00;;;19.06;46.57;101714.91;5024400;28;8792;-55
2021/01/20 10:07:49;;;;;;;;;0.00;0.00;20.00;62.20;;;19.03;46.67;101716.03;5026710;28;8829;-53
2021/01/20 10:10:16;;;;;;;;;0.00;0.00;20.00;62.30;;;19.03;46.62;101720.50;5027498;28;9637;-50
2021/01/20 10:12:44;;;;;;;;;0.50;0.50;19.80;62.30;;;19.01;46.88;101711.78;5016228;28;8835;-54
2021/01/20 10:15:11;;;;;;;;;0.00;0.00;19.90;61.80;;;19.01;46.83;101719.81;5014881;28;8927;-52
2021/01/20 10:17:38;;;;;;;;;0.50;0.00;19.90;61.80;;;18.98;46.95;101725.41;5020221;28;8910;-55
2021/01/20 10:20:06;;;;;;;;;0.50;0.00;20.00;62.20;;;18.98;46.94;101731.63;5020498;28;8797;-55
2021/01/20 10:22:33;;;;;;;;;0.00;0.00;20.10;62.20;;;18.97;46.98;101731.75;5020138;28;8924;-53
2021/01/20 10:25:00;;;;;;;;;0.00;0.00;20.00;62.90;;;18.95;46.95;101725.69;5018661;28;8830;-53
2021/01/20 10:27:27;;;;;;;;;0.00;0.00;19.90;62.40;;;18.93;47.02;101723.16;5030841;28;8821;-54
2021/01/20 10:29:54;;;;;;;;;0.00;0.00;20.00;62.60;;;18.92;46.99;101726.78;5026697;28;9506;-54
2021/01/20 10:32:21;;;;;;;;;0.00;0.00;19.90;62.20;;;18.90;47.00;101744.81;5030698;28;8905;-51
2021/01/20 10:34:47;;;;;;;;;0.00;0.00;19.90;62.50;;;18.91;47.03;101743.00;5022542;28;8789;-54